Terminal Aerodrome Forecast
Issued by NWS

Home | Current Version | Previous Version | Text Only | Print | Product List | Glossary On
Versions: 1 2 3 4 5 6 7 8 9 10 11 12 13 14 15 16 17 18 19 20 21 22 23 24 25 26 27 28 29 30 31 32 33 34 35 36 37 38 39 40 41 42 43 44
000
FTUS45 KPSR 040525
TAFIWA
TAF
KIWA 040525Z 0406/0506 VRB06KT P6SM SCT100 BKN150 OVC250
     FM041000 09006KT P6SM SCT150 OVC200
     FM041900 26009KT P6SM SCT150 SCT250
      AMD LTD TO CLD VIS AND WIND TIL 0413=

USA.gov is the U.S. government's official web portal to all federal, state and local government web resources and services.